Prosser Lakeview, California
Current Conditions -  °F | °C
As of 11:50 AM on Sunday 21 Dec 2014 (Local Time) from KTRK Reporting Station
Overcast Overcast  
Wind Chill:   Ceiling: 2500
Heat Index:   Visibility: 10mi
Dew Point:   Wind: 7mph
Humidity: 71%   Direction: 230°SW
Pressure: 30.29"   Gusts: NA
Location:  39.3569°N, 120.175°W
Report Text: KTRK 211950Z 23006KT 10SM BKN025 OVC030 09/04 A3029 RMK NOSPECI
Loading
Personal Weather Stations






























Interactive Weather Map New forecast layout! Learn more

10-Day Weather Forecast

Advertisements
Track Severe Weather on mobile